Time;durP1;ratioP1;P1;durP2;ratioP2;P2;SDS_P1;SDS_P2;PMS_P1;PMS_P2;Temp;Humidity;BMP_temperature;BMP_pressure;BME280_temperature;BME280_humidity;BME280_pressure;Samples;Min_cycle;Max_cycle;Signal;HPM_P1;HPM_P2
2023/02/09 00:00:30;;;;;;;10.75;6.95;;;-1.10;99.90;;;;;;6214218;23;20149;-85
2023/02/09 00:02:59;;;;;;;11.02;6.97;;;-1.00;99.90;;;;;;6212688;23;20016;-85
2023/02/09 00:08:53;;;;;;;11.70;7.32;;;-1.00;99.90;;;;;;6240056;23;20104;-84
2023/02/09 00:14:17;;;;;;;10.90;6.85;;;-1.10;99.90;;;;;;6235174;23;20040;-82
2023/02/09 00:16:50;;;;;;;11.43;7.18;;;-1.00;99.90;;;;;;6237179;23;20012;-82
2023/02/09 00:19:16;;;;;;;10.32;6.60;;;-1.10;99.90;;;;;;6215552;23;20058;-82
2023/02/09 00:21:47;;;;;;;12.18;6.85;;;-1.10;99.90;;;;;;6217685;23;20020;-85
2023/02/09 00:24:16;;;;;;;12.40;6.95;;;-1.00;99.90;;;;;;6216800;23;20015;-85
2023/02/09 00:26:44;;;;;;;13.20;7.05;;;-0.90;99.90;;;;;;6218569;23;20016;-85
2023/02/09 00:29:13;;;;;;;11.82;6.80;;;-1.00;99.90;;;;;;6218653;23;20043;-84
2023/02/09 00:31:40;;;;;;;15.18;7.32;;;-1.00;99.90;;;;;;6214085;23;20758;-85
2023/02/09 00:34:08;;;;;;;13.25;7.10;;;-0.90;99.90;;;;;;6222244;23;20016;-84
2023/02/09 00:36:39;;;;;;;14.73;7.53;;;-1.00;99.90;;;;;;6214570;23;20015;-85
2023/02/09 00:39:11;;;;;;;15.50;7.80;;;-1.10;99.90;;;;;;6217912;23;20271;-86
2023/02/09 00:44:30;;;;;;;10.13;7.13;;;-1.10;99.90;;;;;;6242626;23;20095;-86
2023/02/09 00:47:08;;;;;;;13.05;8.18;;;-1.10;99.90;;;;;;6215140;23;20095;-85
2023/02/09 00:49:40;;;;;;;10.45;7.15;;;-1.10;99.90;;;;;;6221428;23;20443;-85
2023/02/09 00:52:08;;;;;;;14.63;7.68;;;-1.00;99.90;;;;;;6215596;23;20012;-84
2023/02/09 00:54:34;;;;;;;11.02;6.72;;;-1.00;99.90;;;;;;6215549;23;20012;-83
2023/02/09 00:57:04;;;;;;;12.10;7.30;;;-1.00;99.90;;;;;;6216580;23;20455;-83
2023/02/09 00:59:51;;;;;;;11.23;7.10;;;-1.00;99.90;;;;;;6215643;23;20095;-85
2023/02/09 01:02:29;;;;;;;12.73;7.53;;;-1.00;99.90;;;;;;6239124;23;20646;-83
2023/02/09 01:05:02;;;;;;;13.07;7.63;;;-1.00;99.90;;;;;;6213477;23;20119;-85
2023/02/09 01:07:41;;;;;;;;;;;;;;;;;;;;;
2023/02/09 01:10:18;;;;;;;13.07;7.88;;;-1.00;99.90;;;;;;6241901;23;20048;-84
2023/02/09 01:12:59;;;;;;;15.90;7.38;;;-1.00;99.90;;;;;;6240400;23;20420;-83
2023/02/09 01:15:30;;;;;;;16.33;7.80;;;-1.10;99.90;;;;;;6213817;23;20031;-83
2023/02/09 01:18:01;;;;;;;13.32;7.55;;;-1.00;99.90;;;;;;6217208;23;20016;-83
2023/02/09 01:20:27;;;;;;;13.95;8.02;;;-1.00;99.90;;;;;;6253234;23;20008;-83
2023/02/09 01:23:04;;;;;;;16.02;7.70;;;-1.10;99.90;;;;;;6212155;23;20023;-82
2023/02/09 01:25:30;;;;;;;13.57;7.60;;;-0.90;99.90;;;;;;6215450;23;20146;-83
2023/02/09 01:27:59;;;;;;;14.43;7.72;;;-1.00;99.90;;;;;;6216696;23;20024;-85
2023/02/09 01:30:25;;;;;;;15.20;7.93;;;-0.90;99.90;;;;;;6215903;23;20008;-85
2023/02/09 01:32:54;;;;;;;12.38;7.97;;;-0.80;99.90;;;;;;6215530;23;20012;-85
2023/02/09 01:35:22;;;;;;;14.60;7.53;;;-0.90;99.90;;;;;;6215728;23;20027;-83
2023/02/09 01:38:19;;;;;;;14.77;8.02;;;-0.90;99.90;;;;;;6213797;23;20102;-83
2023/02/09 01:40:54;;;;;;;15.05;8.20;;;-0.90;99.90;;;;;;6215109;23;20036;-84
2023/02/09 01:43:26;;;;;;;11.35;7.72;;;-0.90;99.90;;;;;;6215943;23;20060;-84
2023/02/09 01:46:17;;;;;;;;;;;;;;;;;;;;;
2023/02/09 01:48:52;;;;;;;14.32;8.10;;;-1.00;99.90;;;;;;6239091;23;20020;-82
2023/02/09 01:51:48;;;;;;;;;;;;;;;;;;;;;
2023/02/09 01:54:59;;;;;;;13.70;8.50;;;-0.90;99.90;;;;;;6242617;23;20020;-84
2023/02/09 01:58:22;;;;;;;14.35;8.05;;;-0.90;99.90;;;;;;6132134;23;20020;-83
2023/02/09 02:04:07;;;;;;;13.38;7.35;;;-0.80;99.90;;;;;;5977767;23;20036;-85
2023/02/09 02:06:39;;;;;;;14.57;7.85;;;-0.70;99.90;;;;;;5957087;23;20447;-84
2023/02/09 02:09:16;;;;;;;12.73;7.43;;;-0.70;99.90;;;;;;5956013;23;20027;-83
2023/02/09 02:11:58;;;;;;;14.32;7.93;;;-0.70;99.90;;;;;;5955183;23;20020;-83
2023/02/09 02:14:39;;;;;;;16.83;7.80;;;-0.60;99.90;;;;;;5955849;23;20028;-85
2023/02/09 02:17:43;;;;;;;14.77;7.55;;;-0.70;99.90;;;;;;5979936;23;20088;-83
2023/02/09 02:20:28;;;;;;;14.60;7.93;;;-0.60;99.90;;;;;;5875226;24;20009;-85
2023/02/09 02:23:19;;;;;;;14.47;7.93;;;-0.60;99.90;;;;;;5899650;24;20554;-86
2023/02/09 02:26:22;;;;;;;13.23;7.90;;;-0.60;99.90;;;;;;5900168;24;20091;-83
2023/02/09 02:28:56;;;;;;;13.75;7.53;;;-0.70;99.90;;;;;;5927272;24;20022;-83
2023/02/09 02:31:47;;;;;;;12.52;7.47;;;-0.70;99.90;;;;;;5952539;24;20095;-84
2023/02/09 02:35:10;;;;;;;13.15;7.10;;;-0.60;99.90;;;;;;6014687;23;20059;-84
2023/02/09 02:37:55;;;;;;;14.00;7.72;;;-0.70;99.90;;;;;;5985245;23;20134;-85
2023/02/09 02:40:41;;;;;;;14.23;8.15;;;-0.60;99.90;;;;;;5994930;23;20014;-83
2023/02/09 02:43:37;;;;;;;14.30;7.75;;;-0.70;99.90;;;;;;6064778;23;20021;-83
2023/02/09 02:46:22;;;;;;;15.88;7.95;;;-0.70;99.90;;;;;;6063776;23;20162;-83
2023/02/09 02:49:02;;;;;;;22.17;7.82;;;-0.60;99.90;;;;;;6067982;23;20011;-83
2023/02/09 02:52:06;;;;;;;12.88;7.68;;;-0.80;99.90;;;;;;6063319;23;20022;-83
2023/02/09 02:55:05;;;;;;;13.65;7.85;;;-0.50;99.90;;;;;;6062799;23;20018;-83
2023/02/09 02:57:39;;;;;;;13.82;8.20;;;-0.70;99.90;;;;;;6087209;23;20287;-84
2023/02/09 03:00:38;;;;;;;14.18;8.18;;;-0.70;99.90;;;;;;6070641;23;20014;-84
2023/02/09 03:03:22;;;;;;;13.80;8.48;;;-0.70;99.90;;;;;;6065502;23;20474;-84
2023/02/09 03:06:12;;;;;;;12.70;8.48;;;-0.60;99.90;;;;;;6069479;23;20161;-83
2023/02/09 03:09:02;;;;;;;13.13;7.65;;;-0.60;99.90;;;;;;6067310;23;20532;-83
2023/02/09 03:11:37;;;;;;;15.05;7.82;;;-0.70;99.90;;;;;;6067162;23;20102;-83
2023/02/09 03:14:35;;;;;;;16.45;8.27;;;-0.70;99.90;;;;;;6069359;23;20437;-85
2023/02/09 03:17:30;;;;;;;16.73;8.23;;;-0.70;99.90;;;;;;5954200;23;20019;-83
2023/02/09 03:20:12;;;;;;;16.20;8.57;;;-0.70;99.90;;;;;;5952930;23;20046;-84
2023/02/09 03:22:48;;;;;;;13.50;8.68;;;-0.70;99.90;;;;;;5977862;23;20019;-83
2023/02/09 03:25:23;;;;;;;14.73;7.85;;;-0.70;99.90;;;;;;5953365;23;20023;-84
2023/02/09 03:28:24;;;;;;;14.40;8.02;;;-0.80;99.90;;;;;;5955509;23;20019;-84
2023/02/09 03:30:54;;;;;;;15.18;7.88;;;-0.80;99.90;;;;;;5867147;24;20085;-85
2023/02/09 03:33:23;;;;;;;15.77;8.43;;;-0.80;99.90;;;;;;5878532;24;20709;-84
2023/02/09 03:35:53;;;;;;;14.98;7.78;;;-0.80;99.90;;;;;;5900361;24;20028;-83
2023/02/09 03:38:23;;;;;;;15.02;8.23;;;-0.80;99.90;;;;;;5900286;24;20441;-84
2023/02/09 03:40:49;;;;;;;16.65;8.55;;;-0.80;99.90;;;;;;5945343;24;20020;-86
2023/02/09 03:44:25;;;;;;;15.65;8.27;;;-0.90;99.90;;;;;;5919706;24;20021;-84
2023/02/09 03:46:12;;;;;;;13.65;8.32;;;-0.80;99.90;;;;;;5927004;24;20536;-84
2023/02/09 03:48:38;;;;;;;15.60;8.73;;;-0.80;99.90;;;;;;5899182;24;20021;-82
2023/02/09 03:51:05;;;;;;;13.70;8.70;;;-0.80;99.90;;;;;;5922224;24;20021;-83
2023/02/09 03:53:37;;;;;;;13.20;8.25;;;-0.70;99.90;;;;;;5938945;23;20111;-83
2023/02/09 03:56:08;;;;;;;14.90;8.43;;;-0.90;99.90;;;;;;6038241;23;20059;-84
2023/02/09 03:58:41;;;;;;;19.88;9.07;;;-0.80;99.90;;;;;;6014217;23;20021;-82
2023/02/09 04:01:12;;;;;;;13.25;8.75;;;-0.90;99.90;;;;;;6041935;23;20019;-84
2023/02/09 04:03:40;;;;;;;13.57;7.55;;;-0.90;99.90;;;;;;6011985;23;20867;-85
2023/02/09 04:06:10;;;;;;;15.23;8.55;;;-1.00;99.90;;;;;;6068650;23;20025;-85
2023/02/09 04:08:57;;;;;;;13.27;8.23;;;-0.90;99.90;;;;;;6157362;23;20127;-83
2023/02/09 04:11:26;;;;;;;13.90;8.07;;;-1.00;99.90;;;;;;6158638;23;20013;-83
2023/02/09 04:14:08;;;;;;;13.82;8.27;;;-0.90;99.90;;;;;;6157869;23;20021;-83
2023/02/09 04:16:43;;;;;;;13.00;7.95;;;-1.00;99.90;;;;;;6160562;23;20017;-83
2023/02/09 04:19:10;;;;;;;15.73;7.90;;;-1.00;99.90;;;;;;6159325;23;20009;-83
2023/02/09 04:21:37;;;;;;;14.07;7.88;;;-0.90;99.90;;;;;;6162756;23;20082;-84
2023/02/09 04:24:09;;;;;;;16.02;8.02;;;-0.90;99.90;;;;;;6163685;23;20328;-85
2023/02/09 04:26:41;;;;;;;13.98;8.40;;;-1.00;99.90;;;;;;6163588;23;20032;-85
2023/02/09 04:29:07;;;;;;;14.57;8.20;;;-1.00;99.90;;;;;;6163150;23;20052;-84
2023/02/09 04:31:37;;;;;;;17.15;7.38;;;-1.00;99.90;;;;;;6158870;23;20051;-85
2023/02/09 04:34:05;;;;;;;12.57;7.40;;;-1.00;99.90;;;;;;6158836;23;20008;-86
2023/02/09 04:36:42;;;;;;;13.77;7.95;;;-1.00;99.90;;;;;;6183582;23;20170;-85
2023/02/09 04:39:19;;;;;;;16.05;7.65;;;-1.00;99.90;;;;;;6161009;23;20020;-85
2023/02/09 04:42:01;;;;;;;13.65;7.38;;;-0.90;99.90;;;;;;6164216;23;20082;-83
2023/02/09 04:44:33;;;;;;;15.10;7.65;;;-1.00;99.90;;;;;;6158608;23;20403;-83
2023/02/09 04:47:08;;;;;;;17.85;7.47;;;-1.00;99.90;;;;;;6158991;23;20023;-84
2023/02/09 04:49:34;;;;;;;13.15;7.80;;;-1.00;99.90;;;;;;6158922;23;20023;-84
2023/02/09 04:52:00;;;;;;;14.70;7.97;;;-0.90;99.90;;;;;;6159629;23;20125;-85
2023/02/09 04:54:26;;;;;;;14.57;7.57;;;-0.90;99.90;;;;;;6160632;23;20008;-85
2023/02/09 04:59:33;;;;;;;12.43;7.55;;;-0.90;99.90;;;;;;6161904;23;20094;-84
2023/02/09 04:59:43;;;;;;;17.20;8.35;;;-0.80;99.90;;;;;;6184480;23;20027;-84
2023/02/09 05:02:15;;;;;;;12.00;7.60;;;-0.90;99.90;;;;;;6158914;23;20017;-84
2023/02/09 05:04:44;;;;;;;12.63;7.57;;;-0.90;99.90;;;;;;6161723;23;20020;-86
2023/02/09 05:10:35;;;;;;;13.55;7.05;;;-1.00;99.90;;;;;;6212018;23;20047;-85
2023/02/09 05:13:11;;;;;;;14.50;7.07;;;-1.00;99.90;;;;;;6161742;23;20337;-83
2023/02/09 05:15:38;;;;;;;11.18;6.70;;;-0.90;99.90;;;;;;6179775;23;20020;-85
2023/02/09 05:18:04;;;;;;;12.73;7.63;;;-0.80;99.90;;;;;;6183427;23;20391;-84
2023/02/09 05:20:30;;;;;;;13.93;7.20;;;-0.90;99.90;;;;;;6184130;23;20092;-84
2023/02/09 05:22:55;;;;;;;11.68;7.38;;;-0.90;99.90;;;;;;6183492;23;20691;-83
2023/02/09 05:25:21;;;;;;;15.88;7.35;;;-1.00;99.90;;;;;;6185194;23;20143;-85
2023/02/09 05:27:47;;;;;;;15.57;7.18;;;-1.00;99.90;;;;;;6187582;23;20468;-84
2023/02/09 05:30:13;;;;;;;12.95;7.18;;;-0.90;99.90;;;;;;6185580;23;20008;-84
2023/02/09 05:32:42;;;;;;;14.75;7.82;;;-0.90;99.90;;;;;;6185265;23;20055;-83
2023/02/09 05:35:10;;;;;;;11.52;7.25;;;-0.80;99.90;;;;;;6185381;23;20108;-83
2023/02/09 05:37:36;;;;;;;12.65;7.47;;;-0.90;99.90;;;;;;6183329;23;20035;-83
2023/02/09 05:40:02;;;;;;;11.38;7.07;;;-0.90;99.90;;;;;;6184552;23;20017;-84
2023/02/09 05:42:28;;;;;;;14.07;7.63;;;-1.00;99.90;;;;;;6184801;23;20017;-84
2023/02/09 05:44:54;;;;;;;15.90;7.30;;;-1.00;99.90;;;;;;6183935;23;20021;-83
2023/02/09 05:47:23;;;;;;;12.82;7.47;;;-1.00;99.90;;;;;;6187420;23;20017;-83
2023/02/09 05:49:50;;;;;;;17.67;7.38;;;-0.90;99.90;;;;;;6185267;23;20078;-83
2023/02/09 05:52:16;;;;;;;14.35;7.32;;;-1.00;99.90;;;;;;6183386;23;20021;-84
2023/02/09 05:54:42;;;;;;;14.23;7.35;;;-1.00;99.90;;;;;;6183860;23;20064;-83
2023/02/09 05:57:11;;;;;;;13.50;6.97;;;-1.00;99.90;;;;;;6187327;23;20012;-84
2023/02/09 05:59:37;;;;;;;11.38;6.93;;;-1.00;99.90;;;;;;6209340;23;20095;-84
2023/02/09 06:02:08;;;;;;;12.15;7.45;;;-1.10;99.90;;;;;;6183287;23;20055;-86
2023/02/09 06:04:34;;;;;;;15.10;6.85;;;-1.10;99.90;;;;;;6185438;23;20017;-85
2023/02/09 06:07:00;;;;;;;14.07;7.30;;;-1.20;99.90;;;;;;6186099;23;20013;-84
2023/02/09 06:09:26;;;;;;;14.82;7.00;;;-1.00;99.90;;;;;;6188222;23;20095;-84
2023/02/09 06:12:00;;;;;;;10.93;7.40;;;-1.10;99.90;;;;;;6186876;23;20023;-83
2023/02/09 06:14:26;;;;;;;13.05;7.43;;;-1.30;99.90;;;;;;6185855;23;20028;-85
2023/02/09 06:16:56;;;;;;;15.40;7.70;;;-1.10;99.90;;;;;;6161218;23;20055;-83
2023/02/09 06:19:23;;;;;;;13.80;7.53;;;-1.10;99.90;;;;;;6162840;23;20044;-83
2023/02/09 06:22:21;;;;;;;13.43;7.20;;;-1.00;99.90;;;;;;6162509;23;20063;-85
2023/02/09 06:24:47;;;;;;;10.98;6.93;;;-1.20;99.90;;;;;;6163439;23;20024;-86
2023/02/09 06:27:13;;;;;;;15.20;7.63;;;-1.10;99.90;;;;;;6163496;23;20036;-84
2023/02/09 06:29:39;;;;;;;14.80;7.80;;;-1.20;99.90;;;;;;6162018;23;20013;-83
2023/02/09 06:32:08;;;;;;;15.05;7.32;;;-1.00;99.90;;;;;;6158984;23;20053;-82
2023/02/09 06:34:37;;;;;;;13.88;7.22;;;-1.10;99.90;;;;;;6186187;23;20103;-83
2023/02/09 06:37:25;;;;;;;13.05;8.02;;;-1.10;99.90;;;;;;6159690;23;20012;-82
2023/02/09 06:39:50;;;;;;;13.10;7.75;;;-1.10;99.90;;;;;;6181957;23;20098;-83
2023/02/09 06:42:42;;;;;;;12.73;7.72;;;-1.00;99.90;;;;;;6159500;23;20340;-83
2023/02/09 06:49:07;;;;;;;14.90;8.32;;;-1.10;99.90;;;;;;6116214;23;20041;-86
2023/02/09 06:52:12;;;;;;;14.52;7.68;;;-1.10;99.90;;;;;;6066522;23;20029;-83
2023/02/09 06:54:47;;;;;;;13.02;7.30;;;-1.10;99.90;;;;;;6093155;23;20010;-84
2023/02/09 06:57:49;;;;;;;15.35;7.30;;;-1.10;99.90;;;;;;6068818;23;20016;-85
2023/02/09 07:00:47;;;;;;;15.27;8.23;;;-1.10;99.90;;;;;;6074474;23;20075;-85
2023/02/09 07:03:22;;;;;;;12.70;7.40;;;-1.10;99.90;;;;;;6041284;23;20478;-84
2023/02/09 07:08:47;;;;;;;12.50;8.13;;;-1.00;99.90;;;;;;6063069;23;20033;-84
2023/02/09 07:11:20;;;;;;;11.75;7.82;;;-1.10;99.90;;;;;;6063532;23;20073;-84
2023/02/09 07:13:52;;;;;;;13.95;7.60;;;-1.10;99.90;;;;;;6066868;23;20372;-83
2023/02/09 07:16:18;;;;;;;19.55;7.95;;;-1.00;99.90;;;;;;6067179;23;20040;-83
2023/02/09 07:19:05;;;;;;;12.82;7.35;;;-1.10;99.90;;;;;;6066583;23;20029;-83
2023/02/09 07:22:09;;;;;;;13.98;7.78;;;-1.10;99.90;;;;;;6061151;23;20101;-83
2023/02/09 07:24:39;;;;;;;15.70;8.38;;;-1.20;99.90;;;;;;6084032;23;20028;-82
2023/02/09 07:27:14;;;;;;;13.95;7.93;;;-1.00;99.90;;;;;;6121937;23;20082;-82
2023/02/09 07:29:46;;;;;;;15.13;8.30;;;-1.00;99.90;;;;;;6142077;23;20100;-82
2023/02/09 07:32:12;;;;;;;15.48;8.15;;;-1.00;99.90;;;;;;6144510;23;20020;-82
2023/02/09 07:34:38;;;;;;;24.80;8.55;;;-1.00;99.90;;;;;;6131185;23;20447;-82
2023/02/09 07:37:21;;;;;;;15.07;8.45;;;-0.90;99.90;;;;;;6120503;23;20473;-83
2023/02/09 07:39:46;;;;;;;14.45;8.02;;;-0.80;99.90;;;;;;6132886;23;20016;-82
2023/02/09 07:42:12;;;;;;;17.55;8.27;;;-0.80;99.90;;;;;;6156448;23;20118;-83
2023/02/09 07:44:38;;;;;;;20.70;8.93;;;-0.80;99.90;;;;;;6179879;23;20100;-83
2023/02/09 07:47:13;;;;;;;16.60;8.82;;;-0.70;99.90;;;;;;6157916;23;20019;-84
2023/02/09 07:51:13;;;;;;;14.20;7.78;;;-0.60;99.90;;;;;;6160376;23;20536;-84
2023/02/09 07:54:12;;;;;;;14.65;7.82;;;-0.60;99.90;;;;;;6093117;23;20022;-86
2023/02/09 07:56:41;;;;;;;16.08;8.50;;;-0.60;99.90;;;;;;6067899;23;20104;-81
2023/02/09 07:59:15;;;;;;;16.20;8.45;;;-0.60;99.90;;;;;;6088577;23;20037;-81
2023/02/09 08:01:50;;;;;;;15.30;8.60;;;-0.60;99.90;;;;;;6071263;23;20017;-81
2023/02/09 08:04:16;;;;;;;14.55;8.45;;;-0.50;99.90;;;;;;6076776;23;20044;-80
2023/02/09 08:07:19;;;;;;;17.80;8.63;;;-0.50;99.90;;;;;;6093290;23;20037;-81
2023/02/09 08:09:47;;;;;;;17.80;8.30;;;-0.40;99.90;;;;;;6067380;23;20749;-81
2023/02/09 08:12:13;;;;;;;14.02;8.93;;;-0.20;99.90;;;;;;6065287;23;20331;-82
2023/02/09 08:14:43;;;;;;;16.40;8.98;;;-0.30;99.90;;;;;;6071676;23;20041;-81
2023/02/09 08:17:19;;;;;;;18.90;8.35;;;-0.20;99.90;;;;;;6096523;23;20653;-80
2023/02/09 08:19:55;;;;;;;18.00;8.43;;;-0.20;99.90;;;;;;6120054;23;20041;-83
2023/02/09 08:22:26;;;;;;;14.80;9.18;;;-0.20;99.90;;;;;;6098312;23;20089;-81
2023/02/09 08:24:52;;;;;;;16.20;8.27;;;-0.20;99.90;;;;;;6097801;23;20021;-83
2023/02/09 08:27:18;;;;;;;14.48;8.55;;;-0.10;99.90;;;;;;6100278;23;20025;-82
2023/02/09 08:29:44;;;;;;;17.63;9.18;;;-0.10;99.90;;;;;;6140213;23;20013;-83
2023/02/09 08:32:10;;;;;;;13.35;8.57;;;0.10;99.90;;;;;;6183457;23;20017;-83
2023/02/09 08:34:35;;;;;;;17.45;8.88;;;0.00;99.90;;;;;;6211644;23;20370;-82
2023/02/09 08:37:19;;;;;;;18.05;8.70;;;0.00;99.90;;;;;;6207909;23;20065;-82
2023/02/09 08:39:45;;;;;;;15.38;8.90;;;0.10;99.90;;;;;;6182844;23;20023;-81
2023/02/09 08:42:11;;;;;;;14.57;8.57;;;0.10;99.90;;;;;;6208510;23;20021;-82
2023/02/09 08:44:36;;;;;;;16.55;8.63;;;0.10;99.90;;;;;;6212200;23;20020;-82
2023/02/09 08:47:04;;;;;;;19.38;9.55;;;0.20;99.90;;;;;;6204493;23;20145;-82
2023/02/09 08:49:30;;;;;;;14.52;8.80;;;0.20;99.90;;;;;;6207928;23;20059;-81
2023/02/09 08:51:56;;;;;;;15.52;9.07;;;0.20;99.90;;;;;;6180969;23;20364;-82
2023/02/09 08:54:21;;;;;;;15.10;8.63;;;0.30;99.90;;;;;;6205116;23;20100;-80
2023/02/09 08:56:47;;;;;;;23.80;8.52;;;0.40;99.90;;;;;;6207765;23;20060;-80
2023/02/09 08:59:12;;;;;;;13.90;8.60;;;0.40;99.90;;;;;;6182108;23;20035;-80
2023/02/09 09:01:39;;;;;;;13.75;8.98;;;0.40;99.90;;;;;;6205380;23;20054;-83
2023/02/09 09:04:05;;;;;;;21.45;8.90;;;0.60;99.90;;;;;;6208179;23;20021;-80
2023/02/09 09:06:32;;;;;;;17.42;9.32;;;0.60;99.90;;;;;;6205208;23;20055;-81
2023/02/09 09:08:58;;;;;;;18.83;9.65;;;0.70;99.90;;;;;;6179743;23;20050;-80
2023/02/09 09:11:24;;;;;;;16.67;8.55;;;0.70;99.90;;;;;;6158217;23;20107;-82
2023/02/09 09:13:53;;;;;;;19.10;9.75;;;0.80;99.90;;;;;;6207799;23;20082;-82
2023/02/09 09:16:21;;;;;;;16.48;9.35;;;0.80;99.90;;;;;;6208853;23;20586;-82
2023/02/09 09:18:48;;;;;;;19.17;8.95;;;0.90;99.90;;;;;;6183010;23;20012;-82
2023/02/09 09:21:16;;;;;;;17.27;9.05;;;1.00;99.90;;;;;;6208015;23;20118;-82
2023/02/09 09:23:47;;;;;;;19.02;9.43;;;1.00;99.90;;;;;;6182974;23;20019;-84
2023/02/09 09:26:14;;;;;;;19.08;9.55;;;1.10;99.90;;;;;;6182234;23;20031;-82
2023/02/09 09:28:40;;;;;;;16.73;9.90;;;1.10;99.90;;;;;;6183551;23;20024;-81
2023/02/09 09:31:14;;;;;;;21.55;10.60;;;1.20;99.90;;;;;;6209475;23;20062;-81
2023/02/09 09:33:40;;;;;;;26.67;10.57;;;1.20;99.90;;;;;;6187273;23;20093;-81
2023/02/09 09:36:06;;;;;;;19.88;10.20;;;1.30;99.90;;;;;;6212797;23;20008;-82
2023/02/09 09:38:34;;;;;;;16.98;9.15;;;1.40;99.90;;;;;;6209776;23;20012;-81
2023/02/09 09:41:00;;;;;;;19.40;9.80;;;1.40;99.90;;;;;;6184304;23;20016;-82
2023/02/09 09:43:36;;;;;;;18.02;10.38;;;1.50;99.90;;;;;;6210764;23;20491;-81
2023/02/09 09:46:04;;;;;;;18.42;10.27;;;1.50;99.90;;;;;;6210534;23;20107;-81
2023/02/09 09:48:39;;;;;;;16.73;10.20;;;1.60;99.90;;;;;;6210439;23;20064;-82
2023/02/09 09:51:14;;;;;;;19.02;10.25;;;1.70;99.90;;;;;;6210103;23;20485;-82
2023/02/09 09:53:41;;;;;;;;;;;1.70;99.90;;;;;;6210886;23;20012;-81
2023/02/09 09:56:09;;;;;;;21.05;10.52;;;1.70;99.90;;;;;;6211491;23;19995;-81
2023/02/09 09:58:40;;;;;;;19.63;10.23;;;1.80;99.90;;;;;;6211468;23;20083;-81
2023/02/09 10:01:14;;;;;;;18.83;10.80;;;1.80;99.90;;;;;;6184249;23;20055;-82
2023/02/09 10:03:39;;;;;;;22.37;10.80;;;1.90;99.90;;;;;;6210574;23;20400;-81
2023/02/09 10:06:20;;;;;;;17.95;10.50;;;1.90;99.90;;;;;;6184928;23;20024;-81
2023/02/09 10:08:58;;;;;;;23.85;10.68;;;2.00;99.90;;;;;;6211447;23;20021;-80
2023/02/09 10:11:41;;;;;;;18.40;10.35;;;2.00;99.90;;;;;;6185845;23;20376;-81
2023/02/09 10:14:08;;;;;;;19.60;11.32;;;2.00;99.90;;;;;;6210784;23;20365;-81
2023/02/09 10:16:36;;;;;;;17.60;10.60;;;2.00;99.90;;;;;;6184248;23;20031;-81
2023/02/09 10:19:17;;;;;;;21.02;10.73;;;2.10;99.90;;;;;;6190301;23;20055;-81
2023/02/09 10:21:44;;;;;;;19.92;11.00;;;2.10;99.90;;;;;;6211279;23;20066;-81
2023/02/09 10:24:20;;;;;;;19.85;10.48;;;2.10;99.90;;;;;;6210999;23;20066;-81
2023/02/09 10:27:00;;;;;;;21.08;10.65;;;2.10;99.90;;;;;;6183769;23;20048;-82
2023/02/09 10:29:26;;;;;;;20.98;10.77;;;2.20;99.90;;;;;;6185844;23;20016;-82
2023/02/09 10:32:13;;;;;;;23.23;12.13;;;2.20;99.90;;;;;;6187830;23;20392;-81
2023/02/09 10:34:44;;;;;;;18.92;11.32;;;2.30;99.90;;;;;;6210482;23;20070;-81
2023/02/09 10:37:18;;;;;;;19.98;11.65;;;2.40;99.90;;;;;;6208903;23;20016;-81
2023/02/09 10:39:48;;;;;;;20.88;11.70;;;2.40;99.90;;;;;;6206400;23;20096;-81
2023/02/09 10:42:26;;;;;;;24.33;12.48;;;2.50;99.90;;;;;;6184264;23;20016;-82
2023/02/09 10:45:02;;;;;;;24.02;12.52;;;2.60;99.90;;;;;;6182115;23;20016;-80
2023/02/09 10:47:30;;;;;;;22.52;12.15;;;2.60;99.90;;;;;;6206648;23;20103;-81
2023/02/09 10:50:18;;;;;;;23.00;11.65;;;2.70;99.90;;;;;;6207236;23;20052;-81
2023/02/09 10:53:01;;;;;;;26.05;12.30;;;2.80;99.90;;;;;;6183991;23;20028;-82
2023/02/09 10:55:41;;;;;;;23.45;12.77;;;2.80;99.90;;;;;;6182353;23;20023;-81
2023/02/09 10:58:10;;;;;;;23.58;12.25;;;2.90;99.90;;;;;;6158929;23;20013;-82
2023/02/09 11:00:56;;;;;;;22.35;12.20;;;2.90;99.90;;;;;;6208627;23;20134;-83
2023/02/09 11:03:26;;;;;;;21.90;13.18;;;3.00;99.90;;;;;;6182667;23;20013;-81
2023/02/09 11:06:01;;;;;;;26.25;13.77;;;3.00;99.90;;;;;;6182075;23;20040;-82
2023/02/09 11:09:06;;;;;;;27.60;13.05;;;2.90;99.90;;;;;;6182618;23;20317;-82
2023/02/09 11:11:39;;;;;;;23.13;13.13;;;2.90;99.90;;;;;;6210407;23;20017;-81
2023/02/09 11:14:12;;;;;;;22.90;13.18;;;3.00;99.90;;;;;;6183528;23;20095;-82
2023/02/09 11:16:43;;;;;;;22.02;13.40;;;3.00;99.90;;;;;;6182366;23;20047;-82
2023/02/09 11:19:17;;;;;;;29.02;13.40;;;3.00;99.90;;;;;;6181777;23;20177;-81
2023/02/09 11:21:48;;;;;;;24.00;13.02;;;3.10;99.90;;;;;;6182114;23;20027;-81
2023/02/09 11:24:24;;;;;;;23.05;12.32;;;3.10;99.90;;;;;;6182326;23;20019;-81
2023/02/09 11:27:02;;;;;;;24.05;12.68;;;3.10;99.90;;;;;;6181529;23;20016;-81
2023/02/09 11:29:55;;;;;;;26.40;13.20;;;3.10;99.90;;;;;;6183974;23;20021;-81
2023/02/09 11:32:35;;;;;;;20.75;13.23;;;3.20;99.90;;;;;;6208698;23;20020;-82
2023/02/09 11:35:18;;;;;;;26.55;13.75;;;3.10;99.90;;;;;;6185022;23;20329;-81
2023/02/09 11:38:12;;;;;;;20.42;13.02;;;3.20;99.90;;;;;;6208577;23;20047;-81
2023/02/09 11:40:55;;;;;;;19.55;13.48;;;3.40;99.90;;;;;;6181646;23;20328;-81
2023/02/09 11:43:31;;;;;;;24.05;14.27;;;3.50;99.90;;;;;;6181670;23;20016;-82
2023/02/09 11:46:14;;;;;;;28.25;14.80;;;3.50;99.90;;;;;;6182786;23;20140;-82
2023/02/09 11:48:56;;;;;;;26.88;14.95;;;3.60;99.90;;;;;;6161964;23;20079;-83
2023/02/09 11:51:25;;;;;;;23.35;14.00;;;3.60;99.90;;;;;;6208709;23;20755;-83
2023/02/09 11:54:16;;;;;;;25.75;14.98;;;3.70;99.90;;;;;;6207444;23;20051;-81
2023/02/09 11:56:47;;;;;;;23.92;14.27;;;3.70;99.90;;;;;;6207793;23;20012;-82
2023/02/09 11:59:38;;;;;;;23.27;14.32;;;3.80;99.90;;;;;;6181670;23;20047;-82
2023/02/09 12:02:26;;;;;;;22.83;14.10;;;3.90;99.90;;;;;;6207515;23;20017;-81
2023/02/09 12:04:58;;;;;;;23.48;14.60;;;4.00;99.90;;;;;;6183528;23;20043;-81
2023/02/09 12:08:07;;;;;;;25.65;14.63;;;4.00;99.90;;;;;;6184093;23;20036;-83
2023/02/09 12:10:46;;;;;;;26.83;14.60;;;4.10;99.90;;;;;;6207164;23;20100;-79
2023/02/09 12:13:46;;;;;;;25.48;15.20;;;4.10;99.90;;;;;;6182643;23;20017;-80
2023/02/09 12:16:36;;;;;;;29.27;15.02;;;4.30;99.90;;;;;;6184750;23;20031;-81
2023/02/09 12:19:04;;;;;;;30.98;15.48;;;4.30;99.90;;;;;;6208168;23;20031;-80
2023/02/09 12:21:37;;;;;;;28.25;14.77;;;4.40;99.90;;;;;;6208207;23;20027;-81
2023/02/09 12:24:25;;;;;;;31.23;16.65;;;4.40;99.90;;;;;;6182332;23;20040;-80
2023/02/09 12:26:55;;;;;;;25.85;15.70;;;4.40;99.90;;;;;;6207778;23;20106;-80
2023/02/09 12:29:25;;;;;;;27.08;16.45;;;4.50;99.90;;;;;;6184522;23;20019;-80
2023/02/09 12:32:03;;;;;;;29.90;16.88;;;4.30;99.90;;;;;;6186383;23;20091;-80
2023/02/09 12:34:40;;;;;;;30.17;16.20;;;4.30;99.90;;;;;;6186307;23;20020;-80
2023/02/09 12:37:12;;;;;;;29.63;15.57;;;4.30;99.90;;;;;;6211224;23;20012;-82
2023/02/09 12:40:01;;;;;;;23.35;14.18;;;4.30;99.90;;;;;;6185328;23;20012;-84
2023/02/09 12:42:37;;;;;;;30.92;16.50;;;4.30;99.90;;;;;;6211115;23;20013;-83
2023/02/09 12:45:36;;;;;;;25.48;16.30;;;4.20;99.90;;;;;;6185018;23;20132;-81
2023/02/09 12:48:08;;;;;;;27.60;16.35;;;4.20;99.90;;;;;;6186568;23;20228;-81
2023/02/09 12:50:46;;;;;;;28.38;16.20;;;4.10;99.90;;;;;;6187511;23;20044;-81
2023/02/09 12:53:21;;;;;;;30.67;16.50;;;4.10;99.90;;;;;;6185928;23;20008;-81
2023/02/09 12:56:05;;;;;;;;;;;4.10;99.90;;;;;;6187749;23;20281;-80
2023/02/09 12:58:43;;;;;;;30.42;15.63;;;3.90;99.90;;;;;;6213060;23;20177;-80
2023/02/09 13:01:12;;;;;;;28.95;15.95;;;4.00;99.90;;;;;;6187291;23;20095;-81
2023/02/09 13:03:43;;;;;;;29.60;16.65;;;4.00;99.90;;;;;;6187556;23;20066;-81
2023/02/09 13:06:46;;;;;;;28.35;16.27;;;4.00;99.90;;;;;;6191856;23;20457;-81
2023/02/09 13:09:25;;;;;;;26.67;16.38;;;4.10;99.90;;;;;;6190674;23;20451;-81
2023/02/09 13:12:03;;;;;;;27.00;15.75;;;4.10;99.90;;;;;;6190064;23;20020;-81
2023/02/09 13:14:32;;;;;;;29.55;16.15;;;4.10;99.90;;;;;;6190903;23;20492;-81
2023/02/09 13:17:20;;;;;;;33.92;16.92;;;4.10;99.90;;;;;;6190453;23;20020;-81
2023/02/09 13:20:03;;;;;;;30.45;16.83;;;4.10;99.90;;;;;;6200784;23;20072;-81
2023/02/09 13:25:46;;;;;;;28.58;16.67;;;4.20;99.90;;;;;;6215369;23;20035;-81
2023/02/09 13:28:25;;;;;;;32.58;16.98;;;4.10;99.90;;;;;;6193467;23;20016;-81
2023/02/09 13:31:02;;;;;;;28.15;17.45;;;4.20;99.90;;;;;;6213917;23;20694;-82
2023/02/09 13:33:55;;;;;;;29.92;17.85;;;4.30;99.90;;;;;;6190447;23;20012;-81
2023/02/09 13:37:01;;;;;;;32.13;17.77;;;4.30;99.90;;;;;;6131276;23;20073;-81
2023/02/09 13:39:39;;;;;;;35.53;18.25;;;4.30;99.90;;;;;;6129240;23;20013;-83
2023/02/09 13:42:22;;;;;;;36.03;18.75;;;4.40;99.90;;;;;;6105252;23;20056;-83
2023/02/09 13:44:56;;;;;;;36.08;19.23;;;4.40;99.90;;;;;;6129397;23;20022;-83
2023/02/09 13:47:26;;;;;;;37.00;19.35;;;4.50;99.90;;;;;;6104901;23;20117;-83
2023/02/09 13:50:13;;;;;;;32.85;18.77;;;4.50;99.90;;;;;;6103195;23;20022;-83